sensor_id;sensor_type;location;lat;lon;timestamp;P1;durP1;ratioP1;P2;durP2;ratioP2
27275;SDS011;14772;47.398;8.080;2022-11-14T00:02:06;20.43;;;10.30;;
27275;SDS011;14772;47.398;8.080;2022-11-14T00:07:25;20.10;;;9.80;;
27275;SDS011;14772;47.398;8.080;2022-11-14T00:18:29;21.43;;;10.10;;
27275;SDS011;14772;47.398;8.080;2022-11-14T00:23:55;19.43;;;10.27;;
27275;SDS011;14772;47.398;8.080;2022-11-14T00:29:20;20.13;;;10.97;;
27275;SDS011;14772;47.398;8.080;2022-11-14T00:34:38;19.70;;;10.50;;
27275;SDS011;14772;47.398;8.080;2022-11-14T00:39:50;21.53;;;11.10;;
27275;SDS011;14772;47.398;8.080;2022-11-14T00:45:00;25.07;;;11.00;;
27275;SDS011;14772;47.398;8.080;2022-11-14T00:55:59;22.50;;;11.10;;
27275;SDS011;14772;47.398;8.080;2022-11-14T01:12:13;24.37;;;11.67;;
27275;SDS011;14772;47.398;8.080;2022-11-14T01:17:37;21.60;;;10.90;;
27275;SDS011;14772;47.398;8.080;2022-11-14T01:22:48;25.87;;;12.03;;
27275;SDS011;14772;47.398;8.080;2022-11-14T01:27:58;23.07;;;11.90;;
27275;SDS011;14772;47.398;8.080;2022-11-14T01:39:14;22.63;;;11.50;;
27275;SDS011;14772;47.398;8.080;2022-11-14T01:49:40;23.13;;;11.80;;
27275;SDS011;14772;47.398;8.080;2022-11-14T01:54:42;23.17;;;11.53;;
27275;SDS011;14772;47.398;8.080;2022-11-14T01:59:43;22.40;;;11.43;;
27275;SDS011;14772;47.398;8.080;2022-11-14T02:04:43;23.73;;;12.07;;
27275;SDS011;14772;47.398;8.080;2022-11-14T02:09:44;23.40;;;11.43;;
27275;SDS011;14772;47.398;8.080;2022-11-14T02:14:46;21.90;;;11.80;;
27275;SDS011;14772;47.398;8.080;2022-11-14T02:19:48;22.33;;;11.67;;
27275;SDS011;14772;47.398;8.080;2022-11-14T02:24:49;22.30;;;12.23;;
27275;SDS011;14772;47.398;8.080;2022-11-14T02:29:48;21.60;;;11.47;;
27275;SDS011;14772;47.398;8.080;2022-11-14T02:35:06;22.37;;;11.67;;
27275;SDS011;14772;47.398;8.080;2022-11-14T02:40:43;22.60;;;11.40;;
27275;SDS011;14772;47.398;8.080;2022-11-14T03:08:53;22.17;;;10.43;;
27275;SDS011;14772;47.398;8.080;2022-11-14T03:14:21;22.50;;;12.23;;
27275;SDS011;14772;47.398;8.080;2022-11-14T03:31:06;23.40;;;10.57;;
27275;SDS011;14772;47.398;8.080;2022-11-14T04:04:28;23.50;;;11.87;;
27275;SDS011;14772;47.398;8.080;2022-11-14T04:10:03;22.07;;;11.53;;
27275;SDS011;14772;47.398;8.080;2022-11-14T04:15:20;20.90;;;11.07;;
27275;SDS011;14772;47.398;8.080;2022-11-14T04:25:57;20.87;;;10.67;;
27275;SDS011;14772;47.398;8.080;2022-11-14T04:31:04;21.30;;;11.40;;
27275;SDS011;14772;47.398;8.080;2022-11-14T04:36:15;23.87;;;11.70;;
27275;SDS011;14772;47.398;8.080;2022-11-14T04:41:42;20.53;;;10.87;;
27275;SDS011;14772;47.398;8.080;2022-11-14T04:53:00;20.13;;;10.33;;
27275;SDS011;14772;47.398;8.080;2022-11-14T04:58:14;22.13;;;10.33;;
27275;SDS011;14772;47.398;8.080;2022-11-14T05:03:27;21.77;;;11.33;;
27275;SDS011;14772;47.398;8.080;2022-11-14T05:20:27;23.80;;;10.70;;
27275;SDS011;14772;47.398;8.080;2022-11-14T05:25:25;22.90;;;11.27;;
27275;SDS011;14772;47.398;8.080;2022-11-14T05:30:24;20.93;;;10.93;;
27275;SDS011;14772;47.398;8.080;2022-11-14T05:35:22;23.30;;;11.47;;
27275;SDS011;14772;47.398;8.080;2022-11-14T05:40:21;21.73;;;10.73;;
27275;SDS011;14772;47.398;8.080;2022-11-14T05:45:20;20.43;;;10.90;;
27275;SDS011;14772;47.398;8.080;2022-11-14T05:50:19;23.87;;;11.33;;
27275;SDS011;14772;47.398;8.080;2022-11-14T05:55:38;21.67;;;10.63;;
27275;SDS011;14772;47.398;8.080;2022-11-14T06:06:56;23.20;;;11.17;;
27275;SDS011;14772;47.398;8.080;2022-11-14T06:18:07;23.67;;;10.93;;
27275;SDS011;14772;47.398;8.080;2022-11-14T06:34:58;25.00;;;12.27;;
27275;SDS011;14772;47.398;8.080;2022-11-14T06:40:28;25.33;;;13.20;;
27275;SDS011;14772;47.398;8.080;2022-11-14T06:45:28;23.13;;;11.90;;
27275;SDS011;14772;47.398;8.080;2022-11-14T06:50:28;26.00;;;13.43;;
27275;SDS011;14772;47.398;8.080;2022-11-14T06:55:27;24.70;;;12.63;;
27275;SDS011;14772;47.398;8.080;2022-11-14T07:00:27;24.20;;;12.67;;
27275;SDS011;14772;47.398;8.080;2022-11-14T11:53:01;20.53;;;11.03;;
27275;SDS011;14772;47.398;8.080;2022-11-14T13:36:20;20.97;;;11.40;;
27275;SDS011;14772;47.398;8.080;2022-11-14T13:47:39;20.47;;;10.63;;
27275;SDS011;14772;47.398;8.080;2022-11-14T15:03:23;15.97;;;7.60;;
27275;SDS011;14772;47.398;8.080;2022-11-14T16:00:38;21.03;;;10.10;;
27275;SDS011;14772;47.398;8.080;2022-11-14T16:06:05;22.40;;;9.93;;
27275;SDS011;14772;47.398;8.080;2022-11-14T16:11:25;21.37;;;9.77;;
27275;SDS011;14772;47.398;8.080;2022-11-14T16:28:32;20.73;;;9.63;;
27275;SDS011;14772;47.398;8.080;2022-11-14T16:46:17;17.60;;;8.67;;
27275;SDS011;14772;47.398;8.080;2022-11-14T16:51:39;17.90;;;8.20;;
27275;SDS011;14772;47.398;8.080;2022-11-14T17:02:47;20.00;;;8.90;;
27275;SDS011;14772;47.398;8.080;2022-11-14T17:25:38;21.27;;;10.60;;
27275;SDS011;14772;47.398;8.080;2022-11-14T17:30:58;21.10;;;11.13;;
27275;SDS011;14772;47.398;8.080;2022-11-14T17:52:24;20.57;;;11.33;;
27275;SDS011;14772;47.398;8.080;2022-11-14T17:57:48;21.70;;;12.80;;
27275;SDS011;14772;47.398;8.080;2022-11-14T18:02:51;21.20;;;12.10;;
27275;SDS011;14772;47.398;8.080;2022-11-14T18:13:35;22.93;;;12.27;;
27275;SDS011;14772;47.398;8.080;2022-11-14T18:24:40;21.77;;;12.93;;
27275;SDS011;14772;47.398;8.080;2022-11-14T18:35:09;23.87;;;13.13;;
27275;SDS011;14772;47.398;8.080;2022-11-14T18:40:11;26.40;;;13.80;;
27275;SDS011;14772;47.398;8.080;2022-11-14T18:45:27;27.10;;;15.23;;
27275;SDS011;14772;47.398;8.080;2022-11-14T18:50:45;24.10;;;12.37;;
27275;SDS011;14772;47.398;8.080;2022-11-14T18:55:58;21.63;;;10.63;;
27275;SDS011;14772;47.398;8.080;2022-11-14T19:01:14;20.77;;;11.47;;
27275;SDS011;14772;47.398;8.080;2022-11-14T19:06:21;22.27;;;11.20;;
27275;SDS011;14772;47.398;8.080;2022-11-14T19:11:22;22.07;;;12.00;;
27275;SDS011;14772;47.398;8.080;2022-11-14T19:16:34;20.90;;;11.73;;
27275;SDS011;14772;47.398;8.080;2022-11-14T19:21:50;24.30;;;13.73;;
27275;SDS011;14772;47.398;8.080;2022-11-14T19:26:54;21.57;;;11.83;;
27275;SDS011;14772;47.398;8.080;2022-11-14T19:31:54;30.93;;;14.77;;
27275;SDS011;14772;47.398;8.080;2022-11-14T19:36:52;23.60;;;13.73;;
27275;SDS011;14772;47.398;8.080;2022-11-14T19:41:49;23.17;;;13.63;;
27275;SDS011;14772;47.398;8.080;2022-11-14T19:46:47;21.47;;;12.67;;
27275;SDS011;14772;47.398;8.080;2022-11-14T19:51:44;23.20;;;12.63;;
27275;SDS011;14772;47.398;8.080;2022-11-14T19:56:41;24.63;;;12.20;;
27275;SDS011;14772;47.398;8.080;2022-11-14T20:01:39;23.33;;;12.57;;
27275;SDS011;14772;47.398;8.080;2022-11-14T20:06:37;22.63;;;12.33;;
27275;SDS011;14772;47.398;8.080;2022-11-14T20:11:36;22.13;;;12.23;;
27275;SDS011;14772;47.398;8.080;2022-11-14T20:16:34;20.93;;;11.73;;
27275;SDS011;14772;47.398;8.080;2022-11-14T20:21:33;19.00;;;10.60;;
27275;SDS011;14772;47.398;8.080;2022-11-14T20:26:31;19.73;;;10.67;;
27275;SDS011;14772;47.398;8.080;2022-11-14T20:31:29;19.03;;;11.27;;
27275;SDS011;14772;47.398;8.080;2022-11-14T20:36:29;21.33;;;11.10;;
27275;SDS011;14772;47.398;8.080;2022-11-14T20:41:43;20.00;;;10.60;;
27275;SDS011;14772;47.398;8.080;2022-11-14T20:46:40;20.93;;;11.00;;
27275;SDS011;14772;47.398;8.080;2022-11-14T20:51:38;19.10;;;10.63;;
27275;SDS011;14772;47.398;8.080;2022-11-14T20:56:36;21.07;;;10.37;;
27275;SDS011;14772;47.398;8.080;2022-11-14T21:01:34;20.00;;;10.30;;
27275;SDS011;14772;47.398;8.080;2022-11-14T21:06:32;20.63;;;10.70;;
27275;SDS011;14772;47.398;8.080;2022-11-14T21:11:29;25.60;;;11.13;;
27275;SDS011;14772;47.398;8.080;2022-11-14T21:16:28;23.20;;;11.43;;
27275;SDS011;14772;47.398;8.080;2022-11-14T21:21:28;25.73;;;11.87;;
27275;SDS011;14772;47.398;8.080;2022-11-14T21:26:29;24.93;;;11.40;;
27275;SDS011;14772;47.398;8.080;2022-11-14T21:31:28;23.13;;;11.57;;
27275;SDS011;14772;47.398;8.080;2022-11-14T21:36:27;21.53;;;11.40;;
27275;SDS011;14772;47.398;8.080;2022-11-14T21:41:26;23.73;;;11.80;;
27275;SDS011;14772;47.398;8.080;2022-11-14T21:46:24;52.23;;;11.67;;
27275;SDS011;14772;47.398;8.080;2022-11-14T21:51:23;33.63;;;10.97;;
27275;SDS011;14772;47.398;8.080;2022-11-14T21:56:23;30.10;;;12.27;;
27275;SDS011;14772;47.398;8.080;2022-11-14T22:01:22;22.73;;;11.30;;
27275;SDS011;14772;47.398;8.080;2022-11-14T22:06:20;21.67;;;11.00;;
27275;SDS011;14772;47.398;8.080;2022-11-14T22:11:18;23.63;;;10.93;;
27275;SDS011;14772;47.398;8.080;2022-11-14T22:16:16;23.40;;;11.90;;
27275;SDS011;14772;47.398;8.080;2022-11-14T22:21:13;22.63;;;11.90;;
27275;SDS011;14772;47.398;8.080;2022-11-14T22:26:10;21.70;;;11.80;;
27275;SDS011;14772;47.398;8.080;2022-11-14T22:31:09;27.93;;;10.97;;
27275;SDS011;14772;47.398;8.080;2022-11-14T22:36:09;20.70;;;9.83;;
27275;SDS011;14772;47.398;8.080;2022-11-14T22:41:10;22.03;;;8.70;;
27275;SDS011;14772;47.398;8.080;2022-11-14T22:46:09;17.33;;;9.07;;
27275;SDS011;14772;47.398;8.080;2022-11-14T22:51:09;18.47;;;9.43;;
27275;SDS011;14772;47.398;8.080;2022-11-14T22:56:09;19.43;;;9.47;;
27275;SDS011;14772;47.398;8.080;2022-11-14T23:01:11;18.97;;;9.47;;
27275;SDS011;14772;47.398;8.080;2022-11-14T23:06:13;19.67;;;9.80;;
27275;SDS011;14772;47.398;8.080;2022-11-14T23:11:13;29.40;;;9.33;;
27275;SDS011;14772;47.398;8.080;2022-11-14T23:16:12;24.20;;;9.60;;
27275;SDS011;14772;47.398;8.080;2022-11-14T23:21:12;26.53;;;9.83;;
27275;SDS011;14772;47.398;8.080;2022-11-14T23:26:12;16.00;;;8.50;;
27275;SDS011;14772;47.398;8.080;2022-11-14T23:31:10;18.13;;;8.63;;
27275;SDS011;14772;47.398;8.080;2022-11-14T23:36:08;15.70;;;8.33;;
27275;SDS011;14772;47.398;8.080;2022-11-14T23:41:05;18.07;;;8.87;;
27275;SDS011;14772;47.398;8.080;2022-11-14T23:46:04;17.93;;;8.83;;
27275;SDS011;14772;47.398;8.080;2022-11-14T23:51:02;16.90;;;8.40;;
27275;SDS011;14772;47.398;8.080;2022-11-14T23:56:00;16.93;;;8.60;;
